sensor_id;sensor_type;location;lat;lon;timestamp;pressure;altitude;pressure_sealevel;temperature;humidity
20027;BME280;10174;42.688;23.344;2023-02-04T00:01:17;95141.34;;;0.68;85.37
20027;BME280;10174;42.688;23.344;2023-02-04T00:03:42;95084.66;;;0.17;86.02
20027;BME280;10174;42.688;23.344;2023-02-04T00:06:07;95137.88;;;0.47;85.83
20027;BME280;10174;42.688;23.344;2023-02-04T00:08:33;95149.91;;;0.57;86.17
20027;BME280;10174;42.688;23.344;2023-02-04T00:10:58;95142.34;;;0.47;86.53
20027;BME280;10174;42.688;23.344;2023-02-04T00:13:24;95043.56;;;-0.12;86.66
20027;BME280;10174;42.688;23.344;2023-02-04T00:15:49;95125.69;;;0.46;87.01
20027;BME280;10174;42.688;23.344;2023-02-04T00:18:14;95130.16;;;0.52;86.74
20027;BME280;10174;42.688;23.344;2023-02-04T00:20:40;95127.13;;;0.56;87.07
20027;BME280;10174;42.688;23.344;2023-02-04T00:23:05;95016.78;;;-0.23;86.79
20027;BME280;10174;42.688;23.344;2023-02-04T00:25:30;95079.56;;;0.22;86.84
20027;BME280;10174;42.688;23.344;2023-02-04T00:27:56;95048.66;;;0.09;86.41
20027;BME280;10174;42.688;23.344;2023-02-04T00:30:21;95122.81;;;0.68;85.75
20027;BME280;10174;42.688;23.344;2023-02-04T00:32:47;95053.53;;;0.19;86.09
20027;BME280;10174;42.688;23.344;2023-02-04T00:35:12;95094.97;;;0.32;86.29
20027;BME280;10174;42.688;23.344;2023-02-04T00:37:38;95097.63;;;0.32;86.19
20027;BME280;10174;42.688;23.344;2023-02-04T00:40:03;95125.28;;;0.49;86.28
20027;BME280;10174;42.688;23.344;2023-02-04T00:42:29;95117.97;;;0.58;85.84
20027;BME280;10174;42.688;23.344;2023-02-04T00:44:54;95110.25;;;0.43;85.81
20027;BME280;10174;42.688;23.344;2023-02-04T00:47:20;95087.66;;;0.47;85.39
20027;BME280;10174;42.688;23.344;2023-02-04T00:49:45;95105.34;;;0.60;85.64
20027;BME280;10174;42.688;23.344;2023-02-04T00:52:10;95099.63;;;0.70;84.90
20027;BME280;10174;42.688;23.344;2023-02-04T00:54:36;95108.34;;;0.91;84.47
20027;BME280;10174;42.688;23.344;2023-02-04T00:57:01;95075.25;;;0.61;84.11
20027;BME280;10174;42.688;23.344;2023-02-04T00:59:26;95079.69;;;0.61;83.70
20027;BME280;10174;42.688;23.344;2023-02-04T01:01:52;94984.03;;;0.05;83.92
20027;BME280;10174;42.688;23.344;2023-02-04T01:04:17;95083.34;;;0.80;83.08
20027;BME280;10174;42.688;23.344;2023-02-04T01:06:43;95064.22;;;0.71;82.45
20027;BME280;10174;42.688;23.344;2023-02-04T01:09:08;95057.31;;;0.70;83.34
20027;BME280;10174;42.688;23.344;2023-02-04T01:11:34;95069.50;;;0.78;83.20
20027;BME280;10174;42.688;23.344;2023-02-04T01:14:01;94967.13;;;0.20;83.47
20027;BME280;10174;42.688;23.344;2023-02-04T01:16:26;95075.75;;;0.97;82.35
20027;BME280;10174;42.688;23.344;2023-02-04T01:18:51;95064.16;;;0.98;82.56
20027;BME280;10174;42.688;23.344;2023-02-04T01:21:20;95058.25;;;1.02;81.92
20027;BME280;10174;42.688;23.344;2023-02-04T01:23:46;94954.88;;;0.52;81.92
20027;BME280;10174;42.688;23.344;2023-02-04T01:26:11;95050.44;;;1.21;81.06
20027;BME280;10174;42.688;23.344;2023-02-04T01:28:36;95056.38;;;1.16;81.06
20027;BME280;10174;42.688;23.344;2023-02-04T01:31:02;95013.28;;;0.96;80.70
20027;BME280;10174;42.688;23.344;2023-02-04T01:33:27;94919.72;;;0.38;80.66
20027;BME280;10174;42.688;23.344;2023-02-04T01:35:52;95040.66;;;1.21;80.75
20027;BME280;10174;42.688;23.344;2023-02-04T01:38:18;95023.34;;;1.19;80.73
20027;BME280;10174;42.688;23.344;2023-02-04T01:40:43;95033.50;;;1.29;81.47
20027;BME280;10174;42.688;23.344;2023-02-04T01:43:09;95030.22;;;1.27;82.41
20027;BME280;10174;42.688;23.344;2023-02-04T01:45:36;95025.56;;;1.29;82.10
20027;BME280;10174;42.688;23.344;2023-02-04T01:48:05;95011.22;;;1.04;82.53
20027;BME280;10174;42.688;23.344;2023-02-04T01:50:31;95026.66;;;1.08;82.93
20027;BME280;10174;42.688;23.344;2023-02-04T01:52:58;94983.53;;;1.07;82.31
20027;BME280;10174;42.688;23.344;2023-02-04T01:55:26;94991.28;;;1.02;82.58
20027;BME280;10174;42.688;23.344;2023-02-04T01:57:52;94992.13;;;0.96;83.17
20027;BME280;10174;42.688;23.344;2023-02-04T02:02:50;95002.19;;;1.19;82.54
20027;BME280;10174;42.688;23.344;2023-02-04T02:05:24;94980.28;;;1.05;82.52
20027;BME280;10174;42.688;23.344;2023-02-04T02:07:53;94998.38;;;1.08;82.63
20027;BME280;10174;42.688;23.344;2023-02-04T02:10:20;95012.44;;;1.09;83.19
20027;BME280;10174;42.688;23.344;2023-02-04T02:12:46;95020.63;;;0.94;84.67
20027;BME280;10174;42.688;23.344;2023-02-04T02:15:13;95014.28;;;1.01;84.29
20027;BME280;10174;42.688;23.344;2023-02-04T02:17:39;94998.56;;;1.06;83.81
20027;BME280;10174;42.688;23.344;2023-02-04T02:20:09;94989.25;;;0.97;84.21
20027;BME280;10174;42.688;23.344;2023-02-04T02:25:40;94966.44;;;1.03;83.79
20027;BME280;10174;42.688;23.344;2023-02-04T02:28:10;94899.06;;;0.67;83.61
20027;BME280;10174;42.688;23.344;2023-02-04T02:30:37;94924.53;;;1.00;83.05
20027;BME280;10174;42.688;23.344;2023-02-04T02:33:02;94951.53;;;1.15;83.23
20027;BME280;10174;42.688;23.344;2023-02-04T02:35:28;94943.06;;;1.00;83.38
20027;BME280;10174;42.688;23.344;2023-02-04T02:37:53;94923.84;;;1.18;82.62
20027;BME280;10174;42.688;23.344;2023-02-04T02:40:19;94909.69;;;0.99;82.55
20027;BME280;10174;42.688;23.344;2023-02-04T02:42:48;94907.81;;;1.06;83.04
20027;BME280;10174;42.688;23.344;2023-02-04T02:45:25;94906.63;;;1.02;82.74
20027;BME280;10174;42.688;23.344;2023-02-04T02:47:51;94885.34;;;0.83;82.53
20027;BME280;10174;42.688;23.344;2023-02-04T02:50:22;94920.88;;;1.01;83.17
20027;BME280;10174;42.688;23.344;2023-02-04T02:52:49;94888.59;;;0.85;83.20
20027;BME280;10174;42.688;23.344;2023-02-04T02:55:16;94891.25;;;0.85;82.46
20027;BME280;10174;42.688;23.344;2023-02-04T02:57:44;94902.19;;;0.96;82.63
20027;BME280;10174;42.688;23.344;2023-02-04T03:00:19;94907.53;;;0.82;82.76
20027;BME280;10174;42.688;23.344;2023-02-04T03:02:53;94808.66;;;0.13;83.83
20027;BME280;10174;42.688;23.344;2023-02-04T03:05:20;94909.16;;;0.83;82.65
20027;BME280;10174;42.688;23.344;2023-02-04T03:07:46;94886.56;;;0.87;82.38
20027;BME280;10174;42.688;23.344;2023-02-04T03:10:12;94894.97;;;1.10;81.70
20027;BME280;10174;42.688;23.344;2023-02-04T03:12:37;94896.09;;;0.95;82.17
20027;BME280;10174;42.688;23.344;2023-02-04T03:15:04;94911.47;;;1.05;81.57
20027;BME280;10174;42.688;23.344;2023-02-04T03:17:30;94910.09;;;0.96;81.37
20027;BME280;10174;42.688;23.344;2023-02-04T03:19:56;94910.63;;;1.11;81.20
20027;BME280;10174;42.688;23.344;2023-02-04T03:22:21;94915.84;;;1.24;81.40
20027;BME280;10174;42.688;23.344;2023-02-04T03:24:47;94862.13;;;1.17;80.14
20027;BME280;10174;42.688;23.344;2023-02-04T03:27:14;94886.44;;;1.33;80.57
20027;BME280;10174;42.688;23.344;2023-02-04T03:29:43;94790.84;;;0.72;80.10
20027;BME280;10174;42.688;23.344;2023-02-04T03:32:09;94795.28;;;0.78;80.17
20027;BME280;10174;42.688;23.344;2023-02-04T03:34:35;94899.34;;;1.54;79.71
20027;BME280;10174;42.688;23.344;2023-02-04T03:37:00;94887.66;;;1.37;80.20
20027;BME280;10174;42.688;23.344;2023-02-04T03:39:25;94888.41;;;1.44;80.37
20027;BME280;10174;42.688;23.344;2023-02-04T03:41:51;94880.41;;;1.26;80.56
20027;BME280;10174;42.688;23.344;2023-02-04T03:44:16;94875.44;;;1.36;80.36
20027;BME280;10174;42.688;23.344;2023-02-04T03:46:42;94886.19;;;1.41;79.55
20027;BME280;10174;42.688;23.344;2023-02-04T03:49:08;94871.81;;;1.55;78.22
20027;BME280;10174;42.688;23.344;2023-02-04T03:51:33;94844.72;;;1.35;78.66
20027;BME280;10174;42.688;23.344;2023-02-04T03:53:58;94881.13;;;1.39;79.07
20027;BME280;10174;42.688;23.344;2023-02-04T03:56:24;94871.22;;;1.28;80.15
20027;BME280;10174;42.688;23.344;2023-02-04T03:58:49;94820.22;;;1.14;80.23
20027;BME280;10174;42.688;23.344;2023-02-04T04:01:15;94850.25;;;1.27;79.96
20027;BME280;10174;42.688;23.344;2023-02-04T04:03:40;94837.94;;;1.39;79.56
20027;BME280;10174;42.688;23.344;2023-02-04T04:06:05;94818.06;;;1.30;79.58
20027;BME280;10174;42.688;23.344;2023-02-04T04:08:34;94843.19;;;1.46;79.95
20027;BME280;10174;42.688;23.344;2023-02-04T04:10:59;94824.56;;;1.34;79.38
20027;BME280;10174;42.688;23.344;2023-02-04T04:13:25;94831.38;;;1.48;79.38
20027;BME280;10174;42.688;23.344;2023-02-04T04:15:50;94829.56;;;1.42;79.50
20027;BME280;10174;42.688;23.344;2023-02-04T04:18:15;94823.31;;;1.36;79.63
20027;BME280;10174;42.688;23.344;2023-02-04T04:20:41;94805.88;;;1.29;80.14
20027;BME280;10174;42.688;23.344;2023-02-04T04:23:06;94798.09;;;1.34;80.18
20027;BME280;10174;42.688;23.344;2023-02-04T04:25:31;94817.50;;;1.46;80.25
20027;BME280;10174;42.688;23.344;2023-02-04T04:27:57;94823.31;;;1.36;80.69
20027;BME280;10174;42.688;23.344;2023-02-04T04:30:22;94825.41;;;1.28;80.51
20027;BME280;10174;42.688;23.344;2023-02-04T04:32:48;94810.06;;;1.11;81.26
20027;BME280;10174;42.688;23.344;2023-02-04T04:35:13;94808.34;;;1.23;80.63
20027;BME280;10174;42.688;23.344;2023-02-04T04:37:38;94732.28;;;0.68;80.97
20027;BME280;10174;42.688;23.344;2023-02-04T04:40:04;94822.72;;;1.09;81.39
20027;BME280;10174;42.688;23.344;2023-02-04T04:42:29;94818.28;;;1.03;81.26
20027;BME280;10174;42.688;23.344;2023-02-04T04:44:55;94836.72;;;1.16;81.50
20027;BME280;10174;42.688;23.344;2023-02-04T04:47:20;94851.56;;;1.17;81.28
20027;BME280;10174;42.688;23.344;2023-02-04T04:49:45;94857.97;;;1.28;81.82
20027;BME280;10174;42.688;23.344;2023-02-04T04:52:11;94856.31;;;1.34;81.50
20027;BME280;10174;42.688;23.344;2023-02-04T04:54:36;94862.81;;;1.38;81.89
20027;BME280;10174;42.688;23.344;2023-02-04T04:57:02;94861.50;;;1.47;81.54
20027;BME280;10174;42.688;23.344;2023-02-04T04:59:27;94843.84;;;1.41;81.40
20027;BME280;10174;42.688;23.344;2023-02-04T05:01:52;94832.34;;;1.29;82.35
20027;BME280;10174;42.688;23.344;2023-02-04T05:04:18;94857.66;;;1.43;82.68
20027;BME280;10174;42.688;23.344;2023-02-04T05:06:43;94830.13;;;1.26;83.45
20027;BME280;10174;42.688;23.344;2023-02-04T05:09:09;94837.69;;;1.47;83.67
20027;BME280;10174;42.688;23.344;2023-02-04T05:11:35;94810.72;;;1.32;83.29
20027;BME280;10174;42.688;23.344;2023-02-04T05:14:00;94861.00;;;1.57;83.61
20027;BME280;10174;42.688;23.344;2023-02-04T05:16:25;94851.38;;;1.63;83.49
20027;BME280;10174;42.688;23.344;2023-02-04T05:18:51;94852.22;;;1.82;83.26
20027;BME280;10174;42.688;23.344;2023-02-04T05:21:16;94868.19;;;2.12;82.35
20027;BME280;10174;42.688;23.344;2023-02-04T05:23:42;94881.75;;;2.41;81.42
20027;BME280;10174;42.688;23.344;2023-02-04T05:26:07;94846.69;;;2.39;80.08
20027;BME280;10174;42.688;23.344;2023-02-04T05:28:32;94857.84;;;2.59;78.64
20027;BME280;10174;42.688;23.344;2023-02-04T05:30:58;94875.94;;;2.81;78.39
20027;BME280;10174;42.688;23.344;2023-02-04T05:33:23;94821.25;;;2.19;77.80
20027;BME280;10174;42.688;23.344;2023-02-04T05:35:49;94893.28;;;2.65;77.43
20027;BME280;10174;42.688;23.344;2023-02-04T05:38:14;94898.94;;;2.68;77.76
20027;BME280;10174;42.688;23.344;2023-02-04T05:40:39;94877.19;;;2.48;78.19
20027;BME280;10174;42.688;23.344;2023-02-04T05:43:05;94908.84;;;2.61;77.95
20027;BME280;10174;42.688;23.344;2023-02-04T05:45:30;94904.88;;;2.52;77.74
20027;BME280;10174;42.688;23.344;2023-02-04T05:47:55;94887.22;;;2.46;77.72
20027;BME280;10174;42.688;23.344;2023-02-04T05:50:21;94899.13;;;2.55;77.69
20027;BME280;10174;42.688;23.344;2023-02-04T05:52:46;94899.13;;;2.55;77.17
20027;BME280;10174;42.688;23.344;2023-02-04T05:55:12;94884.56;;;2.46;77.24
20027;BME280;10174;42.688;23.344;2023-02-04T05:57:38;94881.31;;;2.44;77.83
20027;BME280;10174;42.688;23.344;2023-02-04T06:00:07;94867.53;;;2.35;76.88
20027;BME280;10174;42.688;23.344;2023-02-04T06:02:33;94845.63;;;2.09;77.00
20027;BME280;10174;42.688;23.344;2023-02-04T06:04:58;94894.66;;;2.37;76.91
20027;BME280;10174;42.688;23.344;2023-02-04T06:07:24;94856.28;;;2.21;76.60
20027;BME280;10174;42.688;23.344;2023-02-04T06:09:49;94860.69;;;2.27;76.13
20027;BME280;10174;42.688;23.344;2023-02-04T06:12:15;94899.88;;;2.44;75.74
20027;BME280;10174;42.688;23.344;2023-02-04T06:14:40;94901.94;;;2.60;74.69
20027;BME280;10174;42.688;23.344;2023-02-04T06:17:05;94904.56;;;2.60;74.31
20027;BME280;10174;42.688;23.344;2023-02-04T06:19:31;94889.63;;;2.66;73.89
20027;BME280;10174;42.688;23.344;2023-02-04T06:21:56;94900.78;;;2.87;73.67
20027;BME280;10174;42.688;23.344;2023-02-04T06:24:22;94817.66;;;2.44;73.64
20027;BME280;10174;42.688;23.344;2023-02-04T06:26:47;94897.53;;;2.84;72.75
20027;BME280;10174;42.688;23.344;2023-02-04T06:29:12;94903.56;;;2.92;72.44
20027;BME280;10174;42.688;23.344;2023-02-04T06:31:38;94913.97;;;2.93;72.16
20027;BME280;10174;42.688;23.344;2023-02-04T06:34:04;94898.34;;;2.85;72.32
20027;BME280;10174;42.688;23.344;2023-02-04T06:36:30;94892.50;;;2.95;71.82
20027;BME280;10174;42.688;23.344;2023-02-04T06:38:55;94905.78;;;2.95;71.77
20027;BME280;10174;42.688;23.344;2023-02-04T06:41:21;94903.56;;;2.92;71.90
20027;BME280;10174;42.688;23.344;2023-02-04T06:43:47;94900.53;;;2.88;71.80
20027;BME280;10174;42.688;23.344;2023-02-04T06:46:12;94907.47;;;2.89;71.78
20027;BME280;10174;42.688;23.344;2023-02-04T06:48:37;94887.16;;;2.83;71.09
20027;BME280;10174;42.688;23.344;2023-02-04T06:51:03;94904.59;;;2.91;70.74
20027;BME280;10174;42.688;23.344;2023-02-04T06:53:28;94770.16;;;2.12;70.90
20027;BME280;10174;42.688;23.344;2023-02-04T06:55:54;94893.31;;;2.95;70.77
20027;BME280;10174;42.688;23.344;2023-02-04T06:58:19;94873.28;;;2.81;70.49
20027;BME280;10174;42.688;23.344;2023-02-04T07:00:44;94865.38;;;2.93;69.60
20027;BME280;10174;42.688;23.344;2023-02-04T07:03:10;94876.75;;;3.12;69.20
20027;BME280;10174;42.688;23.344;2023-02-04T07:05:35;94869.09;;;3.03;68.93
20027;BME280;10174;42.688;23.344;2023-02-04T07:08:00;94876.66;;;3.18;69.25
20027;BME280;10174;42.688;23.344;2023-02-04T07:10:26;94861.50;;;3.19;68.03
20027;BME280;10174;42.688;23.344;2023-02-04T07:12:51;94880.47;;;3.34;68.17
20027;BME280;10174;42.688;23.344;2023-02-04T07:15:17;94857.38;;;3.23;67.92
20027;BME280;10174;42.688;23.344;2023-02-04T07:17:42;94876.47;;;3.44;67.20
20027;BME280;10174;42.688;23.344;2023-02-04T07:20:09;94879.13;;;3.44;67.93
20027;BME280;10174;42.688;23.344;2023-02-04T07:22:34;94838.00;;;3.34;67.18
20027;BME280;10174;42.688;23.344;2023-02-04T07:24:59;94870.63;;;3.65;67.73
20027;BME280;10174;42.688;23.344;2023-02-04T07:27:25;94867.59;;;3.73;67.15
20027;BME280;10174;42.688;23.344;2023-02-04T07:29:50;94833.88;;;3.62;67.40
20027;BME280;10174;42.688;23.344;2023-02-04T07:32:16;94842.19;;;3.54;66.90
20027;BME280;10174;42.688;23.344;2023-02-04T07:34:41;94856.41;;;3.71;67.15
20027;BME280;10174;42.688;23.344;2023-02-04T07:37:06;94844.16;;;3.70;66.95
20027;BME280;10174;42.688;23.344;2023-02-04T07:39:32;94858.81;;;3.97;65.72
20027;BME280;10174;42.688;23.344;2023-02-04T07:41:57;94762.03;;;3.33;66.46
20027;BME280;10174;42.688;23.344;2023-02-04T07:44:22;94870.59;;;4.13;65.70
20027;BME280;10174;42.688;23.344;2023-02-04T07:46:48;94855.69;;;4.12;65.18
20027;BME280;10174;42.688;23.344;2023-02-04T07:49:13;94876.00;;;4.41;64.24
20027;BME280;10174;42.688;23.344;2023-02-04T07:51:38;94866.16;;;4.30;64.18
20027;BME280;10174;42.688;23.344;2023-02-04T07:54:04;94844.91;;;4.30;64.30
20027;BME280;10174;42.688;23.344;2023-02-04T07:56:29;94860.91;;;4.59;64.37
20027;BME280;10174;42.688;23.344;2023-02-04T07:58:54;94855.03;;;4.57;64.11
20027;BME280;10174;42.688;23.344;2023-02-04T08:01:20;94828.22;;;4.46;63.60
20027;BME280;10174;42.688;23.344;2023-02-04T08:03:45;94851.59;;;4.44;64.11
20027;BME280;10174;42.688;23.344;2023-02-04T08:06:11;94854.91;;;4.52;64.79
20027;BME280;10174;42.688;23.344;2023-02-04T08:08:36;94866.59;;;4.51;63.82
20027;BME280;10174;42.688;23.344;2023-02-04T08:11:01;94816.13;;;4.15;64.45
20027;BME280;10174;42.688;23.344;2023-02-04T08:13:27;94850.25;;;4.59;64.12
20027;BME280;10174;42.688;23.344;2023-02-04T08:15:52;94773.78;;;4.37;63.22
20027;BME280;10174;42.688;23.344;2023-02-04T08:18:17;94866.13;;;4.54;64.16
20027;BME280;10174;42.688;23.344;2023-02-04T08:20:43;94813.06;;;4.06;64.82
20027;BME280;10174;42.688;23.344;2023-02-04T08:23:08;94766.00;;;4.07;64.40
20027;BME280;10174;42.688;23.344;2023-02-04T08:25:34;94823.78;;;4.12;64.93
20027;BME280;10174;42.688;23.344;2023-02-04T08:27:59;94875.56;;;4.09;66.75
20027;BME280;10174;42.688;23.344;2023-02-04T08:30:25;94866.63;;;4.27;66.52
20027;BME280;10174;42.688;23.344;2023-02-04T08:32:50;94831.44;;;4.08;66.14
20027;BME280;10174;42.688;23.344;2023-02-04T08:35:15;94865.47;;;4.23;66.83
20027;BME280;10174;42.688;23.344;2023-02-04T08:37:41;94865.69;;;4.33;66.69
20027;BME280;10174;42.688;23.344;2023-02-04T08:40:07;94823.91;;;4.05;66.72
20027;BME280;10174;42.688;23.344;2023-02-04T08:42:32;94866.53;;;4.34;67.35
20027;BME280;10174;42.688;23.344;2023-02-04T08:44:59;94863.13;;;4.50;66.60
20027;BME280;10174;42.688;23.344;2023-02-04T08:47:24;94858.03;;;4.49;66.42
20027;BME280;10174;42.688;23.344;2023-02-04T08:49:50;94853.94;;;4.58;66.12
20027;BME280;10174;42.688;23.344;2023-02-04T08:52:15;94855.69;;;4.23;67.06
20027;BME280;10174;42.688;23.344;2023-02-04T08:54:40;94868.28;;;4.04;68.05
20027;BME280;10174;42.688;23.344;2023-02-04T08:57:06;94787.22;;;3.54;68.87
20027;BME280;10174;42.688;23.344;2023-02-04T08:59:31;94839.16;;;4.09;70.13
20027;BME280;10174;42.688;23.344;2023-02-04T09:01:56;94748.31;;;3.48;69.63
20027;BME280;10174;42.688;23.344;2023-02-04T09:04:22;94858.91;;;4.25;69.60
20027;BME280;10174;42.688;23.344;2023-02-04T09:06:49;94858.56;;;4.22;70.04
20027;BME280;10174;42.688;23.344;2023-02-04T09:09:15;94844.13;;;4.18;69.01
20027;BME280;10174;42.688;23.344;2023-02-04T09:11:41;94838.72;;;3.89;69.97
20027;BME280;10174;42.688;23.344;2023-02-04T09:14:06;94859.22;;;4.29;69.51
20027;BME280;10174;42.688;23.344;2023-02-04T09:16:32;94812.78;;;4.20;68.60
20027;BME280;10174;42.688;23.344;2023-02-04T09:18:58;94843.00;;;4.42;68.76
20027;BME280;10174;42.688;23.344;2023-02-04T09:21:24;94800.78;;;4.05;67.92
20027;BME280;10174;42.688;23.344;2023-02-04T09:23:50;94819.16;;;4.19;68.08
20027;BME280;10174;42.688;23.344;2023-02-04T09:26:16;94832.38;;;4.42;67.28
20027;BME280;10174;42.688;23.344;2023-02-04T09:28:41;94841.41;;;4.41;66.87
20027;BME280;10174;42.688;23.344;2023-02-04T09:31:07;94840.84;;;4.68;67.00
20027;BME280;10174;42.688;23.344;2023-02-04T09:33:33;94827.63;;;4.73;66.40
20027;BME280;10174;42.688;23.344;2023-02-04T09:35:59;94840.38;;;4.71;66.32
20027;BME280;10174;42.688;23.344;2023-02-04T09:38:24;94829.34;;;4.51;67.19
20027;BME280;10174;42.688;23.344;2023-02-04T09:41:03;94815.13;;;4.04;69.73
20027;BME280;10174;42.688;23.344;2023-02-04T09:43:33;94824.25;;;4.08;71.69
20027;BME280;10174;42.688;23.344;2023-02-04T09:46:00;94830.25;;;4.16;73.65
20027;BME280;10174;42.688;23.344;2023-02-04T09:48:26;94843.66;;;4.21;73.82
20027;BME280;10174;42.688;23.344;2023-02-04T09:51:02;94705.22;;;3.58;72.70
20027;BME280;10174;42.688;23.344;2023-02-04T09:53:28;94834.88;;;4.20;73.26
20027;BME280;10174;42.688;23.344;2023-02-04T09:55:54;94834.56;;;3.93;76.12
20027;BME280;10174;42.688;23.344;2023-02-04T09:58:21;94832.94;;;3.92;75.86
20027;BME280;10174;42.688;23.344;2023-02-04T10:00:51;94817.44;;;4.01;76.03
20027;BME280;10174;42.688;23.344;2023-02-04T10:03:20;94819.63;;;4.04;75.60
20027;BME280;10174;42.688;23.344;2023-02-04T10:05:47;94758.28;;;3.82;75.80
20027;BME280;10174;42.688;23.344;2023-02-04T10:08:27;94773.53;;;3.98;74.91
20027;BME280;10174;42.688;23.344;2023-02-04T10:10:53;94810.94;;;4.20;74.27
20027;BME280;10174;42.688;23.344;2023-02-04T10:13:25;94793.50;;;4.13;75.07
20027;BME280;10174;42.688;23.344;2023-02-04T10:15:53;94808.50;;;4.19;74.43
20027;BME280;10174;42.688;23.344;2023-02-04T10:18:25;94805.63;;;4.08;74.74
20027;BME280;10174;42.688;23.344;2023-02-04T10:21:14;94780.69;;;4.09;73.98
20027;BME280;10174;42.688;23.344;2023-02-04T10:23:41;94781.25;;;4.12;74.49
20027;BME280;10174;42.688;23.344;2023-02-04T10:26:10;94768.19;;;3.98;73.76
20027;BME280;10174;42.688;23.344;2023-02-04T10:28:36;94788.06;;;4.07;74.84
20027;BME280;10174;42.688;23.344;2023-02-04T10:31:02;94764.78;;;4.26;73.64
20027;BME280;10174;42.688;23.344;2023-02-04T10:33:27;94698.44;;;3.91;72.99
20027;BME280;10174;42.688;23.344;2023-02-04T10:35:55;94770.72;;;4.45;73.38
20027;BME280;10174;42.688;23.344;2023-02-04T10:38:21;94778.47;;;4.93;72.16
20027;BME280;10174;42.688;23.344;2023-02-04T10:40:47;94777.66;;;4.75;72.46
20027;BME280;10174;42.688;23.344;2023-02-04T10:43:15;94787.97;;;4.02;76.58
20027;BME280;10174;42.688;23.344;2023-02-04T10:45:46;94780.94;;;3.96;79.68
20027;BME280;10174;42.688;23.344;2023-02-04T10:48:14;94775.31;;;3.81;78.08
20027;BME280;10174;42.688;23.344;2023-02-04T10:50:40;94784.44;;;3.85;79.66
20027;BME280;10174;42.688;23.344;2023-02-04T10:53:07;94766.31;;;4.10;78.68
20027;BME280;10174;42.688;23.344;2023-02-04T10:55:53;94757.56;;;3.98;79.17
20027;BME280;10174;42.688;23.344;2023-02-04T10:58:23;94703.09;;;3.72;78.26
20027;BME280;10174;42.688;23.344;2023-02-04T11:00:50;94781.06;;;4.30;77.96
20027;BME280;10174;42.688;23.344;2023-02-04T11:03:27;94768.31;;;4.03;79.41
20027;BME280;10174;42.688;23.344;2023-02-04T11:05:56;94763.47;;;4.00;79.77
20027;BME280;10174;42.688;23.344;2023-02-04T11:08:29;94773.22;;;4.35;80.18
20027;BME280;10174;42.688;23.344;2023-02-04T11:11:01;94772.31;;;4.18;78.14
20027;BME280;10174;42.688;23.344;2023-02-04T11:14:04;94763.03;;;4.32;79.06
20027;BME280;10174;42.688;23.344;2023-02-04T11:16:30;94743.16;;;4.23;80.25
20027;BME280;10174;42.688;23.344;2023-02-04T11:19:03;94747.25;;;4.42;77.36
20027;BME280;10174;42.688;23.344;2023-02-04T11:26:45;94750.75;;;4.89;74.23
20027;BME280;10174;42.688;23.344;2023-02-04T11:39:38;94756.31;;;4.41;76.63
20027;BME280;10174;42.688;23.344;2023-02-04T11:42:47;94761.19;;;4.61;76.38
20027;BME280;10174;42.688;23.344;2023-02-04T11:45:15;94769.97;;;4.33;76.89
20027;BME280;10174;42.688;23.344;2023-02-04T11:47:42;94757.78;;;4.08;78.85
20027;BME280;10174;42.688;23.344;2023-02-04T11:50:21;94755.97;;;3.97;78.31
20027;BME280;10174;42.688;23.344;2023-02-04T11:52:49;94772.81;;;4.03;78.96
20027;BME280;10174;42.688;23.344;2023-02-04T11:55:15;94761.84;;;4.11;78.95
20027;BME280;10174;42.688;23.344;2023-02-04T11:57:42;94766.34;;;4.39;79.17
20027;BME280;10174;42.688;23.344;2023-02-04T12:00:17;94752.38;;;4.03;79.92
20027;BME280;10174;42.688;23.344;2023-02-04T12:02:47;94756.63;;;4.04;79.33
20027;BME280;10174;42.688;23.344;2023-02-04T12:05:19;94764.16;;;4.36;78.87
20027;BME280;10174;42.688;23.344;2023-02-04T12:07:47;94736.63;;;4.42;77.94
20027;BME280;10174;42.688;23.344;2023-02-04T12:12:52;94644.88;;;3.70;78.15
20027;BME280;10174;42.688;23.344;2023-02-04T12:15:29;94755.06;;;3.80;82.32
20027;BME280;10174;42.688;23.344;2023-02-04T12:18:08;94741.84;;;4.08;80.95
20027;BME280;10174;42.688;23.344;2023-02-04T12:20:37;94736.13;;;3.88;80.95
20027;BME280;10174;42.688;23.344;2023-02-04T12:23:03;94702.47;;;3.53;82.62
20027;BME280;10174;42.688;23.344;2023-02-04T12:25:29;94744.03;;;3.59;81.73
20027;BME280;10174;42.688;23.344;2023-02-04T12:27:55;94633.25;;;2.95;82.44
20027;BME280;10174;42.688;23.344;2023-02-04T12:30:22;94734.28;;;3.77;83.07
20027;BME280;10174;42.688;23.344;2023-02-04T12:32:48;94738.91;;;3.69;82.88
20027;BME280;10174;42.688;23.344;2023-02-04T12:35:13;94724.59;;;3.59;82.67
20027;BME280;10174;42.688;23.344;2023-02-04T12:37:39;94722.66;;;3.54;83.87
20027;BME280;10174;42.688;23.344;2023-02-04T12:40:05;94734.09;;;3.43;83.11
20027;BME280;10174;42.688;23.344;2023-02-04T12:42:31;94741.38;;;3.47;83.33
20027;BME280;10174;42.688;23.344;2023-02-04T12:44:56;94732.00;;;3.45;83.59
20027;BME280;10174;42.688;23.344;2023-02-04T12:47:23;94653.41;;;3.08;82.87
20027;BME280;10174;42.688;23.344;2023-02-04T12:49:49;94729.69;;;3.60;80.93
20027;BME280;10174;42.688;23.344;2023-02-04T12:52:14;94707.78;;;3.53;79.68
20027;BME280;10174;42.688;23.344;2023-02-04T12:54:39;94730.22;;;3.74;81.12
20027;BME280;10174;42.688;23.344;2023-02-04T12:57:05;94722.00;;;3.87;80.22
20027;BME280;10174;42.688;23.344;2023-02-04T12:59:30;94737.44;;;4.14;78.34
20027;BME280;10174;42.688;23.344;2023-02-04T13:01:56;94733.38;;;4.12;78.68
20027;BME280;10174;42.688;23.344;2023-02-04T13:04:22;94716.81;;;4.21;77.09
20027;BME280;10174;42.688;23.344;2023-02-04T13:06:47;94707.03;;;4.10;76.56
20027;BME280;10174;42.688;23.344;2023-02-04T13:09:13;94724.84;;;4.09;75.81
20027;BME280;10174;42.688;23.344;2023-02-04T13:11:38;94673.34;;;3.58;77.13
20027;BME280;10174;42.688;23.344;2023-02-04T13:14:04;94731.00;;;3.98;77.95
20027;BME280;10174;42.688;23.344;2023-02-04T13:16:29;94734.47;;;3.99;76.55
20027;BME280;10174;42.688;23.344;2023-02-04T13:18:54;94728.03;;;3.83;76.23
20027;BME280;10174;42.688;23.344;2023-02-04T13:21:20;94729.97;;;3.87;76.75